GEC355 EYVI-EPGD
Flight info
| Callsign | GEC355 |
|---|---|
| Flight time | 0h 47m |
| Altitude | 36000 |
| Route | UPASI DCT TUNGA DCT SUWGI L29 GRUDA/N0450F350 Z95 OSLOG |
| Aircraft | A321/M-SDE3FGHIRWY/LB1 |
Departure
| Time | 2026-04-28 19:36 |
|---|---|
| Airport | Vilnius International Airport (EYVI) |
Arrival
| Time | 2026-04-28 20:24 |
|---|---|
| Airport | Gdańsk Lech Wałęsa Airport (EPGD) |
| Time | Latitude | Longitude | Altitude | Speed | Heading |
|---|---|---|---|---|---|
| 2026-04-28 19:04 | 54.64042 | 25.28277 | 637 ft | 0 kts | 77° |
| 2026-04-28 19:26 | 54.64038 | 25.28250 | 642 ft | 4 kts | 88° |
| 2026-04-28 19:26 | 54.64043 | 25.28209 | 638 ft | 4 kts | 128° |
| 2026-04-28 19:26 | 54.64061 | 25.28186 | 637 ft | 2 kts | 167° |
| 2026-04-28 19:27 | 54.64062 | 25.28186 | 637 ft | 0 kts | 167° |
| 2026-04-28 19:30 | 54.64041 | 25.28194 | 644 ft | 8 kts | 167° |
| 2026-04-28 19:30 | 54.63984 | 25.28217 | 635 ft | 9 kts | 166° |
| 2026-04-28 19:30 | 54.63918 | 25.28244 | 638 ft | 11 kts | 167° |
| 2026-04-28 19:30 | 54.63837 | 25.28277 | 636 ft | 13 kts | 166° |
| 2026-04-28 19:31 | 54.63796 | 25.28294 | 632 ft | 2 kts | 166° |
| 2026-04-28 19:31 | 54.63768 | 25.28306 | 633 ft | 6 kts | 166° |
| 2026-04-28 19:31 | 54.63712 | 25.28327 | 631 ft | 10 kts | 168° |
| 2026-04-28 19:31 | 54.63635 | 25.28354 | 628 ft | 13 kts | 168° |
| 2026-04-28 19:32 | 54.63538 | 25.28344 | 620 ft | 16 kts | 199° |
| 2026-04-28 19:32 | 54.63431 | 25.28271 | 613 ft | 17 kts | 202° |
| 2026-04-28 19:32 | 54.63329 | 25.28200 | 621 ft | 15 kts | 202° |
| 2026-04-28 19:32 | 54.63230 | 25.28132 | 609 ft | 15 kts | 202° |
| 2026-04-28 19:33 | 54.63131 | 25.28064 | 608 ft | 15 kts | 201° |
| 2026-04-28 19:33 | 54.63030 | 25.27996 | 606 ft | 16 kts | 201° |
| 2026-04-28 19:33 | 54.62924 | 25.27922 | 610 ft | 17 kts | 204° |
| 2026-04-28 19:33 | 54.62827 | 25.27853 | 602 ft | 15 kts | 201° |
| 2026-04-28 19:34 | 54.62730 | 25.27788 | 601 ft | 15 kts | 201° |
| 2026-04-28 19:34 | 54.62637 | 25.27723 | 601 ft | 14 kts | 202° |
| 2026-04-28 19:34 | 54.62549 | 25.27669 | 603 ft | 12 kts | 191° |
| 2026-04-28 19:34 | 54.62484 | 25.27702 | 618 ft | 9 kts | 144° |
| 2026-04-28 19:35 | 54.62440 | 25.27763 | 614 ft | 11 kts | 137° |
| 2026-04-28 19:35 | 54.62437 | 25.27888 | 612 ft | 12 kts | 48° |
| 2026-04-28 19:35 | 54.62476 | 25.27926 | 610 ft | 0 kts | 22° |
| 2026-04-28 19:35 | 54.62516 | 25.27954 | 608 ft | 28 kts | 22° |
| 2026-04-28 19:36 | 54.62964 | 25.28261 | 604 ft | 105 kts | 22° |
| 2026-04-28 19:36 | 54.63832 | 25.28853 | 662 ft | 156 kts | 20° |
| 2026-04-28 19:36 | 54.64837 | 25.29565 | 1310 ft | 159 kts | 21° |
| 2026-04-28 19:36 | 54.65851 | 25.30277 | 2222 ft | 153 kts | 18° |
| 2026-04-28 19:37 | 54.66840 | 25.30923 | 2981 ft | 155 kts | 16° |
| 2026-04-28 19:37 | 54.67533 | 25.31383 | 3265 ft | 167 kts | 17° |
| 2026-04-28 19:37 | 54.69087 | 25.32448 | 3600 ft | 197 kts | 18° |
| 2026-04-28 19:37 | 54.70441 | 25.33385 | 3942 ft | 219 kts | 18° |
| 2026-04-28 19:38 | 54.71872 | 25.34384 | 4857 ft | 223 kts | 18° |
| 2026-04-28 19:38 | 54.73328 | 25.35408 | 5827 ft | 226 kts | 18° |
| 2026-04-28 19:38 | 54.74778 | 25.36428 | 6764 ft | 230 kts | 18° |
| 2026-04-28 19:38 | 54.76272 | 25.37478 | 7655 ft | 234 kts | 18° |
| 2026-04-28 19:39 | 54.77804 | 25.38515 | 8540 ft | 237 kts | 13° |
| 2026-04-28 19:39 | 54.79442 | 25.38659 | 9376 ft | 237 kts | 345° |
| 2026-04-28 19:39 | 54.80914 | 25.37421 | 10056 ft | 249 kts | 319° |
| 2026-04-28 19:39 | 54.81910 | 25.34856 | 10523 ft | 268 kts | 294° |
| 2026-04-28 19:40 | 54.82645 | 25.31718 | 10804 ft | 292 kts | 294° |
| 2026-04-28 19:40 | 54.83395 | 25.28284 | 11032 ft | 317 kts | 288° |
| 2026-04-28 19:40 | 54.83494 | 25.24323 | 11235 ft | 345 kts | 260° |
| 2026-04-28 19:40 | 54.82445 | 25.20544 | 11785 ft | 363 kts | 233° |
| 2026-04-28 19:41 | 54.80485 | 25.17670 | 12379 ft | 377 kts | 214° |
| 2026-04-28 19:41 | 54.78100 | 25.15638 | 13014 ft | 386 kts | 204° |
| 2026-04-28 19:41 | 54.75532 | 25.14117 | 13689 ft | 392 kts | 199° |
| 2026-04-28 19:41 | 54.72931 | 25.12739 | 14303 ft | 396 kts | 202° |
| 2026-04-28 19:42 | 54.70420 | 25.10797 | 14859 ft | 395 kts | 214° |
| 2026-04-28 19:42 | 54.68251 | 25.07910 | 15399 ft | 392 kts | 228° |
| 2026-04-28 19:42 | 54.66336 | 25.04547 | 15965 ft | 394 kts | 230° |
| 2026-04-28 19:42 | 54.65062 | 25.02270 | 16340 ft | 396 kts | 230° |
| 2026-04-28 19:43 | 54.62480 | 24.97681 | 17069 ft | 400 kts | 230° |
| 2026-04-28 19:43 | 54.60542 | 24.94290 | 17590 ft | 403 kts | 229° |
| 2026-04-28 19:43 | 54.58555 | 24.90856 | 18128 ft | 406 kts | 229° |
| 2026-04-28 19:43 | 54.56535 | 24.87406 | 18648 ft | 409 kts | 229° |
| 2026-04-28 19:44 | 54.54491 | 24.83940 | 19134 ft | 413 kts | 229° |
| 2026-04-28 19:44 | 54.52427 | 24.80441 | 19636 ft | 415 kts | 230° |
| 2026-04-28 19:44 | 54.50571 | 24.76705 | 20095 ft | 414 kts | 238° |
| 2026-04-28 19:44 | 54.49060 | 24.72497 | 20581 ft | 412 kts | 247° |
| 2026-04-28 19:45 | 54.47938 | 24.68018 | 21074 ft | 412 kts | 253° |
| 2026-04-28 19:45 | 54.46900 | 24.63392 | 21574 ft | 415 kts | 253° |
| 2026-04-28 19:45 | 54.45848 | 24.58760 | 22051 ft | 418 kts | 253° |
| 2026-04-28 19:45 | 54.44776 | 24.54094 | 22527 ft | 421 kts | 253° |
| 2026-04-28 19:46 | 54.43693 | 24.49395 | 23020 ft | 424 kts | 252° |
| 2026-04-28 19:46 | 54.42603 | 24.44671 | 23468 ft | 427 kts | 253° |
| 2026-04-28 19:46 | 54.41500 | 24.39892 | 23908 ft | 430 kts | 253° |
| 2026-04-28 19:46 | 54.40404 | 24.35158 | 24276 ft | 433 kts | 253° |
| 2026-04-28 19:47 | 54.39286 | 24.30334 | 24649 ft | 436 kts | 252° |
| 2026-04-28 19:47 | 54.38270 | 24.25424 | 24990 ft | 436 kts | 257° |
| 2026-04-28 19:47 | 54.37395 | 24.20433 | 25333 ft | 438 kts | 257° |
| 2026-04-28 19:47 | 54.36512 | 24.15401 | 25660 ft | 441 kts | 257° |
| 2026-04-28 19:48 | 54.35619 | 24.10342 | 25988 ft | 444 kts | 257° |
| 2026-04-28 19:48 | 54.34720 | 24.05270 | 26285 ft | 446 kts | 257° |
| 2026-04-28 19:48 | 54.33824 | 24.00232 | 26563 ft | 448 kts | 257° |
| 2026-04-28 19:48 | 54.32910 | 23.95108 | 26819 ft | 451 kts | 257° |
| 2026-04-28 19:49 | 54.31986 | 23.89934 | 27080 ft | 452 kts | 257° |
| 2026-04-28 19:49 | 54.31063 | 23.84782 | 27400 ft | 452 kts | 257° |
| 2026-04-28 19:49 | 54.30143 | 23.79667 | 27750 ft | 452 kts | 257° |
| 2026-04-28 19:49 | 54.29213 | 23.74511 | 28081 ft | 452 kts | 257° |
| 2026-04-28 19:50 | 54.27354 | 23.64217 | 28738 ft | 452 kts | 257° |
| 2026-04-28 19:50 | 54.26430 | 23.59141 | 29062 ft | 452 kts | 257° |
| 2026-04-28 19:50 | 54.25492 | 23.53988 | 29389 ft | 452 kts | 257° |
| 2026-04-28 19:51 | 54.24555 | 23.48847 | 29722 ft | 452 kts | 257° |
| 2026-04-28 19:51 | 54.23616 | 23.43710 | 30020 ft | 452 kts | 257° |
| 2026-04-28 19:51 | 54.22602 | 23.38683 | 30308 ft | 455 kts | 252° |
| 2026-04-28 19:51 | 54.21175 | 23.33818 | 30553 ft | 460 kts | 246° |
| 2026-04-28 19:52 | 54.19620 | 23.29017 | 30812 ft | 460 kts | 246° |
| 2026-04-28 19:52 | 54.18592 | 23.25838 | 30964 ft | 460 kts | 246° |
| 2026-04-28 19:52 | 54.17048 | 23.21045 | 31207 ft | 460 kts | 247° |
| 2026-04-28 19:52 | 54.15900 | 23.16010 | 31440 ft | 450 kts | 262° |
| 2026-04-28 19:53 | 54.15555 | 23.10848 | 31893 ft | 436 kts | 275° |
| 2026-04-28 19:53 | 54.15750 | 23.05728 | 32403 ft | 429 kts | 278° |
| 2026-04-28 19:53 | 54.15984 | 23.00648 | 32922 ft | 425 kts | 278° |
| 2026-04-28 19:53 | 54.16218 | 22.95651 | 33440 ft | 420 kts | 278° |
| 2026-04-28 19:54 | 54.16450 | 22.90702 | 33975 ft | 416 kts | 278° |
| 2026-04-28 19:54 | 54.16678 | 22.85838 | 34480 ft | 411 kts | 278° |
| 2026-04-28 19:54 | 54.16902 | 22.80992 | 34929 ft | 406 kts | 278° |
| 2026-04-28 19:54 | 54.17120 | 22.76194 | 35387 ft | 400 kts | 278° |
| 2026-04-28 19:55 | 54.17333 | 22.71469 | 35770 ft | 397 kts | 278° |
| 2026-04-28 19:55 | 54.17538 | 22.66856 | 36139 ft | 393 kts | 278° |
| 2026-04-28 19:55 | 54.17748 | 22.62174 | 36265 ft | 397 kts | 278° |
| 2026-04-28 19:56 | 54.18172 | 22.52620 | 36293 ft | 409 kts | 278° |
| 2026-04-28 19:56 | 54.18595 | 22.42746 | 36296 ft | 423 kts | 278° |
| 2026-04-28 19:57 | 54.19023 | 22.32626 | 36298 ft | 436 kts | 277° |
| 2026-04-28 19:57 | 54.19446 | 22.22160 | 36303 ft | 444 kts | 277° |
| 2026-04-28 19:58 | 54.19858 | 22.11642 | 36153 ft | 446 kts | 277° |
| 2026-04-28 19:58 | 54.20064 | 22.06365 | 35919 ft | 441 kts | 277° |
| 2026-04-28 19:58 | 54.20265 | 22.01186 | 35679 ft | 432 kts | 278° |
| 2026-04-28 19:58 | 54.20462 | 21.96053 | 35370 ft | 438 kts | 277° |
| 2026-04-28 19:59 | 54.20666 | 21.90813 | 34877 ft | 442 kts | 278° |
| 2026-04-28 19:59 | 54.20863 | 21.85621 | 34410 ft | 441 kts | 278° |
| 2026-04-28 19:59 | 54.21057 | 21.80409 | 33858 ft | 437 kts | 278° |
| 2026-04-28 19:59 | 54.21244 | 21.75265 | 33300 ft | 432 kts | 278° |
| 2026-04-28 20:00 | 54.21428 | 21.70137 | 32750 ft | 427 kts | 278° |
| 2026-04-28 20:00 | 54.21606 | 21.65096 | 32217 ft | 422 kts | 278° |
| 2026-04-28 20:00 | 54.21779 | 21.60178 | 31698 ft | 417 kts | 278° |
| 2026-04-28 20:00 | 54.21950 | 21.55247 | 31177 ft | 413 kts | 279° |
| 2026-04-28 20:01 | 54.22116 | 21.50389 | 30669 ft | 408 kts | 279° |
| 2026-04-28 20:01 | 54.22280 | 21.45567 | 30118 ft | 403 kts | 279° |
| 2026-04-28 20:01 | 54.22442 | 21.40807 | 29506 ft | 398 kts | 279° |
| 2026-04-28 20:01 | 54.22599 | 21.36108 | 28905 ft | 393 kts | 279° |
| 2026-04-28 20:02 | 54.22748 | 21.31520 | 28320 ft | 388 kts | 279° |
| 2026-04-28 20:02 | 54.22897 | 21.26924 | 27751 ft | 384 kts | 279° |
| 2026-04-28 20:02 | 54.23047 | 21.22384 | 27185 ft | 379 kts | 279° |
| 2026-04-28 20:02 | 54.23195 | 21.17904 | 26643 ft | 375 kts | 279° |
| 2026-04-28 20:03 | 54.23336 | 21.13520 | 26094 ft | 371 kts | 279° |
| 2026-04-28 20:03 | 54.23475 | 21.09124 | 25565 ft | 366 kts | 279° |
| 2026-04-28 20:03 | 54.23608 | 21.04792 | 25039 ft | 362 kts | 279° |
| 2026-04-28 20:03 | 54.23736 | 21.00552 | 24533 ft | 358 kts | 279° |
| 2026-04-28 20:04 | 54.23861 | 20.96321 | 24029 ft | 355 kts | 280° |
| 2026-04-28 20:04 | 54.23986 | 20.92122 | 23437 ft | 351 kts | 280° |
| 2026-04-28 20:04 | 54.24111 | 20.87966 | 22839 ft | 348 kts | 280° |
| 2026-04-28 20:04 | 54.24230 | 20.83843 | 22262 ft | 345 kts | 280° |
| 2026-04-28 20:05 | 54.24347 | 20.79752 | 21668 ft | 342 kts | 280° |
| 2026-04-28 20:05 | 54.24463 | 20.75685 | 21091 ft | 340 kts | 280° |
| 2026-04-28 20:05 | 54.24578 | 20.71669 | 20534 ft | 337 kts | 279° |
| 2026-04-28 20:05 | 54.24688 | 20.67705 | 19998 ft | 340 kts | 279° |
| 2026-04-28 20:06 | 54.24802 | 20.63636 | 19449 ft | 343 kts | 279° |
| 2026-04-28 20:06 | 54.24914 | 20.59564 | 18932 ft | 342 kts | 279° |
| 2026-04-28 20:06 | 54.25023 | 20.55500 | 18372 ft | 340 kts | 278° |
| 2026-04-28 20:06 | 54.25127 | 20.51510 | 17783 ft | 338 kts | 278° |
| 2026-04-28 20:07 | 54.25230 | 20.47497 | 17188 ft | 336 kts | 278° |
| 2026-04-28 20:07 | 54.25298 | 20.44795 | 16814 ft | 335 kts | 278° |
| 2026-04-28 20:07 | 54.25428 | 20.39543 | 16066 ft | 333 kts | 278° |
| 2026-04-28 20:07 | 54.25526 | 20.35599 | 15515 ft | 331 kts | 278° |
| 2026-04-28 20:08 | 54.25624 | 20.31676 | 14968 ft | 329 kts | 277° |
| 2026-04-28 20:08 | 54.25718 | 20.27766 | 14441 ft | 328 kts | 277° |
| 2026-04-28 20:08 | 54.25810 | 20.23934 | 13885 ft | 326 kts | 277° |
| 2026-04-28 20:08 | 54.25903 | 20.20062 | 13307 ft | 324 kts | 277° |
| 2026-04-28 20:09 | 54.25995 | 20.16221 | 12721 ft | 322 kts | 277° |
| 2026-04-28 20:09 | 54.26087 | 20.12399 | 12210 ft | 319 kts | 277° |
| 2026-04-28 20:09 | 54.26175 | 20.08610 | 11935 ft | 318 kts | 276° |
| 2026-04-28 20:09 | 54.26258 | 20.04868 | 11670 ft | 317 kts | 276° |
| 2026-04-28 20:10 | 54.26340 | 20.01096 | 11413 ft | 317 kts | 276° |
| 2026-04-28 20:10 | 54.26422 | 19.97328 | 11153 ft | 315 kts | 276° |
| 2026-04-28 20:10 | 54.26503 | 19.93566 | 10896 ft | 315 kts | 276° |
| 2026-04-28 20:10 | 54.26583 | 19.89861 | 10641 ft | 314 kts | 276° |
| 2026-04-28 20:11 | 54.26662 | 19.86137 | 10386 ft | 313 kts | 276° |
| 2026-04-28 20:11 | 54.26737 | 19.82402 | 10119 ft | 312 kts | 276° |
| 2026-04-28 20:11 | 54.26811 | 19.78692 | 9838 ft | 311 kts | 276° |
| 2026-04-28 20:11 | 54.26885 | 19.75035 | 9563 ft | 310 kts | 276° |
| 2026-04-28 20:12 | 54.26960 | 19.71349 | 9283 ft | 310 kts | 276° |
| 2026-04-28 20:12 | 54.27036 | 19.67670 | 9020 ft | 309 kts | 276° |
| 2026-04-28 20:12 | 54.27109 | 19.63989 | 8741 ft | 308 kts | 276° |
| 2026-04-28 20:12 | 54.27155 | 19.61565 | 8563 ft | 307 kts | 276° |
| 2026-04-28 20:13 | 54.27246 | 19.56672 | 8202 ft | 306 kts | 276° |
| 2026-04-28 20:13 | 54.27313 | 19.53067 | 7935 ft | 306 kts | 276° |
| 2026-04-28 20:13 | 54.27380 | 19.49431 | 7678 ft | 305 kts | 276° |
| 2026-04-28 20:13 | 54.27445 | 19.45807 | 7416 ft | 304 kts | 276° |
| 2026-04-28 20:14 | 54.27507 | 19.42184 | 7154 ft | 303 kts | 276° |
| 2026-04-28 20:14 | 54.27568 | 19.38591 | 6900 ft | 302 kts | 276° |
| 2026-04-28 20:14 | 54.27625 | 19.35095 | 6636 ft | 291 kts | 276° |
| 2026-04-28 20:14 | 54.27679 | 19.31692 | 6362 ft | 280 kts | 276° |
| 2026-04-28 20:15 | 54.27730 | 19.28410 | 6092 ft | 271 kts | 276° |
| 2026-04-28 20:15 | 54.27780 | 19.25206 | 5821 ft | 268 kts | 276° |
| 2026-04-28 20:15 | 54.27828 | 19.22024 | 5556 ft | 266 kts | 276° |
| 2026-04-28 20:15 | 54.27875 | 19.18901 | 5290 ft | 265 kts | 276° |
| 2026-04-28 20:16 | 54.27924 | 19.15761 | 5030 ft | 264 kts | 276° |
| 2026-04-28 20:16 | 54.27975 | 19.12630 | 4904 ft | 263 kts | 276° |
| 2026-04-28 20:16 | 54.28023 | 19.09479 | 4802 ft | 263 kts | 276° |
| 2026-04-28 20:16 | 54.28065 | 19.06358 | 4691 ft | 263 kts | 275° |
| 2026-04-28 20:17 | 54.28105 | 19.03227 | 4585 ft | 263 kts | 275° |
| 2026-04-28 20:17 | 54.28147 | 19.00134 | 4476 ft | 261 kts | 275° |
| 2026-04-28 20:17 | 54.28184 | 18.97109 | 4364 ft | 247 kts | 275° |
| 2026-04-28 20:17 | 54.28218 | 18.94213 | 4255 ft | 242 kts | 275° |
| 2026-04-28 20:18 | 54.28256 | 18.91343 | 4147 ft | 241 kts | 275° |
| 2026-04-28 20:18 | 54.28282 | 18.89442 | 4072 ft | 241 kts | 275° |
| 2026-04-28 20:18 | 54.28339 | 18.85652 | 4015 ft | 237 kts | 277° |
| 2026-04-28 20:18 | 54.28684 | 18.83033 | 4022 ft | 215 kts | 295° |
| 2026-04-28 20:19 | 54.29239 | 18.80742 | 4019 ft | 204 kts | 298° |
| 2026-04-28 20:19 | 54.29807 | 18.78515 | 4040 ft | 203 kts | 298° |
| 2026-04-28 20:19 | 54.30369 | 18.76287 | 3978 ft | 204 kts | 298° |
| 2026-04-28 20:19 | 54.30928 | 18.74058 | 3753 ft | 202 kts | 297° |
| 2026-04-28 20:20 | 54.31476 | 18.71867 | 3494 ft | 198 kts | 297° |
| 2026-04-28 20:20 | 54.32007 | 18.69746 | 3216 ft | 194 kts | 297° |
| 2026-04-28 20:20 | 54.32535 | 18.67633 | 2946 ft | 191 kts | 297° |
| 2026-04-28 20:20 | 54.33052 | 18.65560 | 2681 ft | 185 kts | 297° |
| 2026-04-28 20:21 | 54.33545 | 18.63580 | 2450 ft | 176 kts | 297° |
| 2026-04-28 20:21 | 54.34018 | 18.61680 | 2184 ft | 171 kts | 297° |
| 2026-04-28 20:21 | 54.34474 | 18.59850 | 1940 ft | 162 kts | 297° |
| 2026-04-28 20:21 | 54.34894 | 18.58157 | 1713 ft | 147 kts | 297° |
| 2026-04-28 20:22 | 54.35282 | 18.56596 | 1511 ft | 137 kts | 298° |
| 2026-04-28 20:22 | 54.35651 | 18.55113 | 1313 ft | 134 kts | 297° |
| 2026-04-28 20:22 | 54.36012 | 18.53674 | 1114 ft | 132 kts | 297° |
| 2026-04-28 20:22 | 54.36375 | 18.52223 | 934 ft | 132 kts | 296° |
| 2026-04-28 20:23 | 54.36727 | 18.50764 | 724 ft | 132 kts | 295° |
| 2026-04-28 20:23 | 54.37078 | 18.49337 | 551 ft | 130 kts | 296° |
| 2026-04-28 20:23 | 54.37428 | 18.47972 | 470 ft | 113 kts | 294° |
| 2026-04-28 20:23 | 54.37661 | 18.47013 | 458 ft | 61 kts | 294° |
| 2026-04-28 20:24 | 54.37781 | 18.46537 | 455 ft | 32 kts | 292° |
| 2026-04-28 20:24 | 54.37866 | 18.46183 | 458 ft | 32 kts | 294° |
| 2026-04-28 20:24 | 54.37973 | 18.45879 | 455 ft | 27 kts | 309° |
| 2026-04-28 20:24 | 54.38085 | 18.45728 | 455 ft | 15 kts | 328° |
| 2026-04-28 20:25 | 54.38141 | 18.45751 | 455 ft | 10 kts | 82° |
| 2026-04-28 20:25 | 54.38126 | 18.45855 | 456 ft | 8 kts | 111° |
| 2026-04-28 20:25 | 54.38111 | 18.45921 | 458 ft | 6 kts | 112° |
| 2026-04-28 20:25 | 54.38082 | 18.46041 | 460 ft | 17 kts | 112° |
| 2026-04-28 20:26 | 54.38029 | 18.46255 | 460 ft | 20 kts | 113° |
| 2026-04-28 20:26 | 54.37975 | 18.46470 | 457 ft | 19 kts | 114° |
| 2026-04-28 20:26 | 54.37922 | 18.46682 | 460 ft | 19 kts | 112° |
| 2026-04-28 20:26 | 54.37872 | 18.46883 | 460 ft | 13 kts | 115° |
| 2026-04-28 20:27 | 54.37902 | 18.46974 | 460 ft | 10 kts | 24° |
| 2026-04-28 20:27 | 54.37958 | 18.47039 | 460 ft | 10 kts | 59° |
| 2026-04-28 20:27 | 54.37952 | 18.47149 | 460 ft | 9 kts | 113° |
| 2026-04-28 20:27 | 54.37926 | 18.47250 | 460 ft | 9 kts | 113° |
| 2026-04-28 20:28 | 54.37909 | 18.47346 | 460 ft | 5 kts | 72° |
| 2026-04-28 20:28 | 54.37938 | 18.47359 | 460 ft | 4 kts | 358° |
| 2026-04-28 20:28 | 54.37950 | 18.47357 | 460 ft | 0 kts | 354° |